Morton, TX (79346)

2:04 AM CST on March 01, 2015 (GMT -0600)
Clovis Municipal | Change Station
CLOSE
Current Station
Airport
Location: Clovis,
Elevation: 4216 ft
Nearby Weather Stations

Elev 4216 ft 34.43 °N, 103.08 °W | Updated 9 minutes ago

Fog
Fog
27 °F
Feels Like 18 °F
N
9
Wind Variable Wind from SSW

Today
High -- | Low -- °F
--% Chance of Precip.
Yesterday
High -- | Low -- °F
Precip. -- in
7:19 AM 6:47 PM
Waxing Gibbous, 83% visible
Pressure 30.11 in
Visibility 2.0 miles
Clouds Overcast 200 ft
Windchill 18 °F
Dew Point 25 °F
Humidity 93%
Rainfall 0.00 in
Snow Depth Not available.
UV 0 out of 12
Pollen 2.80 out of 12
Air Quality Not available.
Flu Activity Not available.
METAR KCVN 010755Z AUTO 21008KT 2SM OVC002 M03/M04 A3011 RMK AO1

More Conditions Fewer Conditions

Pressure 30.11 in
Visibility 2.0 miles
Clouds Overcast 200 ft
Windchill 18 °F
Dew Point 25 °F
Humidity 93%
Rainfall 0.00 in
Snow Depth Not available.
UV 0 out of 12
Pollen 2.80 out of 12
Air Quality Not available.
Flu Activity Not available.
METAR KCVN 010755Z AUTO 21008KT 2SM OVC002 M03/M04 A3011 RMK AO1

More Conditions Fewer Conditions

Nowcast | as of 1:51 am CST on March 1, 2015

Through 430 am...locally dense freezing fog with visibilities of 1/4 mile or less will occur over portions of the South Plains and far southwest Panhandle. Visibilities over much of these areas are generally 1 mile or better...however roads can still develop a thin coating of frost in these conditions making for slick stretches. Travel with care especially if on bridges or overpasses.

×

10-Day Weather Forecast

Almanac

Astronomy

Mar. 01, 2015 Rise Set
Actual Time
Civil Twilight
Nautical Twilight
Astronomical Twilight
Moon
Length of Visible Light
Length of Day
Tomorrow will be .
, % of the Moon is Illuminated

Today's Extremes

State Highs State Lows

Community

WunderPhotos

Upload Photos

1,801,350 photos uploaded!

WunderBlogs® & News

Nearby

Air Quality

  Air Quality AQ Index Pollutant
Not available.

Snow Depth

Station Depth Elevation

Earthquake Activity

City Distance Mag. Time & Date
Minimum magnitude displayed is 2.5.

Coastal Water Temperatures

Place Temperature

Nearby Weather Stations